sensor_id;sensor_type;location;lat;lon;timestamp;P1;durP1;ratioP1;P2;durP2;ratioP2
26407;SDS011;14583;43.604;1.364;2023-08-24T19:45:03;6.18;;;3.08;;
26407;SDS011;14583;43.604;1.364;2023-08-24T19:47:29;8.25;;;3.45;;
26407;SDS011;14583;43.604;1.364;2023-08-24T19:49:55;7.88;;;3.25;;
26407;SDS011;14583;43.604;1.364;2023-08-24T19:52:21;6.47;;;3.95;;
26407;SDS011;14583;43.604;1.364;2023-08-24T19:54:47;8.52;;;3.20;;
26407;SDS011;14583;43.604;1.364;2023-08-24T19:57:12;6.82;;;3.65;;
26407;SDS011;14583;43.604;1.364;2023-08-24T19:59:40;5.28;;;3.38;;
26407;SDS011;14583;43.604;1.364;2023-08-24T20:02:05;7.45;;;3.83;;
26407;SDS011;14583;43.604;1.364;2023-08-24T20:04:31;6.95;;;3.60;;
26407;SDS011;14583;43.604;1.364;2023-08-24T20:06:58;8.40;;;3.78;;
26407;SDS011;14583;43.604;1.364;2023-08-24T20:09:24;9.88;;;3.80;;
26407;SDS011;14583;43.604;1.364;2023-08-24T20:11:50;7.25;;;3.40;;
26407;SDS011;14583;43.604;1.364;2023-08-24T20:14:15;8.30;;;3.60;;
26407;SDS011;14583;43.604;1.364;2023-08-24T20:16:42;9.40;;;3.88;;
26407;SDS011;14583;43.604;1.364;2023-08-24T20:19:08;12.73;;;3.85;;
26407;SDS011;14583;43.604;1.364;2023-08-24T20:21:34;9.52;;;3.95;;
26407;SDS011;14583;43.604;1.364;2023-08-24T20:23:59;9.25;;;3.83;;
26407;SDS011;14583;43.604;1.364;2023-08-24T20:26:25;7.65;;;4.00;;
26407;SDS011;14583;43.604;1.364;2023-08-24T20:28:51;14.70;;;4.30;;
26407;SDS011;14583;43.604;1.364;2023-08-24T20:31:16;8.98;;;4.30;;
26407;SDS011;14583;43.604;1.364;2023-08-24T20:33:42;8.65;;;4.20;;
26407;SDS011;14583;43.604;1.364;2023-08-24T20:36:07;8.63;;;4.07;;
26407;SDS011;14583;43.604;1.364;2023-08-24T20:38:33;7.15;;;4.38;;
26407;SDS011;14583;43.604;1.364;2023-08-24T20:41:02;13.63;;;3.95;;
26407;SDS011;14583;43.604;1.364;2023-08-24T20:43:28;8.65;;;3.65;;
26407;SDS011;14583;43.604;1.364;2023-08-24T20:45:55;10.38;;;4.45;;
26407;SDS011;14583;43.604;1.364;2023-08-24T20:48:20;11.93;;;5.93;;
26407;SDS011;14583;43.604;1.364;2023-08-24T20:50:46;6.97;;;3.80;;
26407;SDS011;14583;43.604;1.364;2023-08-24T20:53:12;9.75;;;4.65;;
26407;SDS011;14583;43.604;1.364;2023-08-24T20:55:37;9.55;;;4.10;;
26407;SDS011;14583;43.604;1.364;2023-08-24T20:58:03;9.25;;;4.30;;
26407;SDS011;14583;43.604;1.364;2023-08-24T21:00:29;7.20;;;3.90;;
26407;SDS011;14583;43.604;1.364;2023-08-24T21:02:54;7.38;;;4.07;;
26407;SDS011;14583;43.604;1.364;2023-08-24T21:05:20;8.25;;;3.90;;
26407;SDS011;14583;43.604;1.364;2023-08-24T21:07:46;6.72;;;4.07;;
26407;SDS011;14583;43.604;1.364;2023-08-24T21:10:11;8.75;;;4.38;;
26407;SDS011;14583;43.604;1.364;2023-08-24T21:12:37;7.45;;;3.92;;
26407;SDS011;14583;43.604;1.364;2023-08-24T21:15:03;7.13;;;4.75;;
26407;SDS011;14583;43.604;1.364;2023-08-24T21:17:29;8.80;;;4.00;;
26407;SDS011;14583;43.604;1.364;2023-08-24T21:19:55;9.07;;;3.63;;
26407;SDS011;14583;43.604;1.364;2023-08-24T21:22:22;5.00;;;3.55;;
26407;SDS011;14583;43.604;1.364;2023-08-24T21:24:47;7.63;;;4.50;;
26407;SDS011;14583;43.604;1.364;2023-08-24T21:27:13;9.35;;;4.32;;
26407;SDS011;14583;43.604;1.364;2023-08-24T21:29:39;9.27;;;4.28;;
26407;SDS011;14583;43.604;1.364;2023-08-24T21:32:06;20.25;;;7.43;;
26407;SDS011;14583;43.604;1.364;2023-08-24T21:34:32;7.35;;;5.25;;
26407;SDS011;14583;43.604;1.364;2023-08-24T21:36:58;8.38;;;4.38;;
26407;SDS011;14583;43.604;1.364;2023-08-24T21:39:25;7.78;;;4.50;;
26407;SDS011;14583;43.604;1.364;2023-08-24T21:41:51;9.02;;;4.30;;
26407;SDS011;14583;43.604;1.364;2023-08-24T21:44:17;7.10;;;4.07;;
26407;SDS011;14583;43.604;1.364;2023-08-24T21:46:43;14.15;;;4.82;;
26407;SDS011;14583;43.604;1.364;2023-08-24T21:49:08;8.45;;;4.18;;
26407;SDS011;14583;43.604;1.364;2023-08-24T21:51:34;12.60;;;4.63;;
26407;SDS011;14583;43.604;1.364;2023-08-24T21:54:00;13.63;;;4.72;;
26407;SDS011;14583;43.604;1.364;2023-08-24T21:56:25;12.05;;;4.65;;
26407;SDS011;14583;43.604;1.364;2023-08-24T21:58:53;8.50;;;4.20;;
26407;SDS011;14583;43.604;1.364;2023-08-24T22:01:19;12.70;;;6.00;;
26407;SDS011;14583;43.604;1.364;2023-08-24T22:03:45;15.40;;;7.93;;
26407;SDS011;14583;43.604;1.364;2023-08-24T22:06:11;13.98;;;7.50;;
26407;SDS011;14583;43.604;1.364;2023-08-24T22:08:36;16.95;;;7.35;;
26407;SDS011;14583;43.604;1.364;2023-08-24T22:11:02;15.32;;;6.82;;
26407;SDS011;14583;43.604;1.364;2023-08-24T22:13:28;14.40;;;7.25;;
26407;SDS011;14583;43.604;1.364;2023-08-24T22:15:54;19.83;;;7.60;;
26407;SDS011;14583;43.604;1.364;2023-08-24T22:18:20;18.33;;;8.00;;
26407;SDS011;14583;43.604;1.364;2023-08-24T22:20:46;17.48;;;8.02;;
26407;SDS011;14583;43.604;1.364;2023-08-24T22:23:12;17.67;;;8.07;;
26407;SDS011;14583;43.604;1.364;2023-08-24T22:25:38;19.30;;;8.13;;
26407;SDS011;14583;43.604;1.364;2023-08-24T22:28:04;16.50;;;7.55;;
26407;SDS011;14583;43.604;1.364;2023-08-24T22:30:31;15.23;;;7.72;;
26407;SDS011;14583;43.604;1.364;2023-08-24T22:32:57;17.02;;;7.32;;
26407;SDS011;14583;43.604;1.364;2023-08-24T22:35:23;27.55;;;8.45;;
26407;SDS011;14583;43.604;1.364;2023-08-24T22:37:49;17.25;;;7.55;;
26407;SDS011;14583;43.604;1.364;2023-08-24T22:40:15;18.27;;;8.80;;
26407;SDS011;14583;43.604;1.364;2023-08-24T22:42:40;16.95;;;8.23;;
26407;SDS011;14583;43.604;1.364;2023-08-24T22:45:06;19.75;;;7.93;;
26407;SDS011;14583;43.604;1.364;2023-08-24T22:47:33;16.70;;;7.47;;
26407;SDS011;14583;43.604;1.364;2023-08-24T22:50:02;14.32;;;7.10;;
26407;SDS011;14583;43.604;1.364;2023-08-24T22:52:36;20.02;;;7.93;;
26407;SDS011;14583;43.604;1.364;2023-08-24T22:55:03;17.60;;;7.75;;
26407;SDS011;14583;43.604;1.364;2023-08-24T22:57:30;14.18;;;7.32;;
26407;SDS011;14583;43.604;1.364;2023-08-24T22:59:56;19.05;;;7.38;;
26407;SDS011;14583;43.604;1.364;2023-08-24T23:02:23;15.48;;;7.63;;
26407;SDS011;14583;43.604;1.364;2023-08-24T23:04:49;20.33;;;8.25;;
26407;SDS011;14583;43.604;1.364;2023-08-24T23:07:15;19.73;;;8.05;;
26407;SDS011;14583;43.604;1.364;2023-08-24T23:09:41;16.95;;;9.10;;
26407;SDS011;14583;43.604;1.364;2023-08-24T23:12:07;18.25;;;8.35;;
26407;SDS011;14583;43.604;1.364;2023-08-24T23:14:33;18.35;;;8.20;;
26407;SDS011;14583;43.604;1.364;2023-08-24T23:17:00;23.48;;;9.95;;
26407;SDS011;14583;43.604;1.364;2023-08-24T23:19:26;18.00;;;8.23;;
26407;SDS011;14583;43.604;1.364;2023-08-24T23:21:52;24.27;;;8.25;;
26407;SDS011;14583;43.604;1.364;2023-08-24T23:24:18;18.17;;;8.45;;
26407;SDS011;14583;43.604;1.364;2023-08-24T23:26:43;19.38;;;8.63;;
26407;SDS011;14583;43.604;1.364;2023-08-24T23:29:09;21.65;;;8.93;;
26407;SDS011;14583;43.604;1.364;2023-08-24T23:31:35;16.38;;;7.88;;
26407;SDS011;14583;43.604;1.364;2023-08-24T23:34:00;19.88;;;7.75;;
26407;SDS011;14583;43.604;1.364;2023-08-24T23:36:26;24.20;;;8.63;;
26407;SDS011;14583;43.604;1.364;2023-08-24T23:38:51;14.48;;;7.50;;
26407;SDS011;14583;43.604;1.364;2023-08-24T23:41:17;14.88;;;7.32;;
26407;SDS011;14583;43.604;1.364;2023-08-24T23:43:43;20.85;;;7.70;;
26407;SDS011;14583;43.604;1.364;2023-08-24T23:46:08;19.42;;;7.93;;
26407;SDS011;14583;43.604;1.364;2023-08-24T23:48:34;17.48;;;7.93;;
26407;SDS011;14583;43.604;1.364;2023-08-24T23:50:59;17.55;;;7.63;;
26407;SDS011;14583;43.604;1.364;2023-08-24T23:53:26;21.73;;;7.63;;
26407;SDS011;14583;43.604;1.364;2023-08-24T23:55:52;23.02;;;7.55;;
26407;SDS011;14583;43.604;1.364;2023-08-24T23:58:17;20.95;;;8.02;;
